Dades meteomassalio
Diari Summary for Noviembre 20, 2017 Units:  Metric    English   Both
« Previous Day
Next Day »
Diari Semanal Mensual Anual Personalitzat
  Maxima: Minima: Mijana:
Temperatura: 16.1 °C -2.8 °C 3.4 °C
Rosada: 0.2 °C -7.1 °C -4.7 °C
Humitat: 80 % 33 % 58 %
Velocitat del vent: 7.4 km/h 0.0 km/h 0.4 km/h
Racha vent: 7.4 km/h - -
Vent:- - East
Pressio: 1028.7 hPa 1025.3 hPa -
Pluja: 0.0 mm    
Historical Graphs
 
 
Tabular Data for Noviembre 20, 2017
Time Temperature Dew Point Pressure Wind Wind Speed Wind Gust Humidity Rainfall Rate (Hourly) solar Conditions
00:00 -0.6 °C -5.3 °C 1027.0 hPa Calm     70 % 0.0 mm 0.0 W/m2 CLR
00:05 -0.6 °C -5.2 °C 1027.0 hPa Calm     71 % 0.0 mm 0.0 W/m2 CLR
00:10 -0.6 °C -5.3 °C 1027.0 hPa Calm     70 % 0.0 mm 0.0 W/m2 CLR
00:15 -0.6 °C -5.3 °C 1027.0 hPa Calm     70 % 0.0 mm 0.0 W/m2 CLR
00:20 -0.6 °C -5.2 °C 1027.0 hPa Calm     71 % 0.0 mm 0.0 W/m2 CLR
00:35 -0.6 °C -5.2 °C 1027.0 hPa Calm     71 % 0.0 mm 0.0 W/m2 CLR
00:40 -0.6 °C -5.0 °C 1027.0 hPa Calm     72 % 0.0 mm 0.0 W/m2 CLR
00:50 -0.6 °C -5.2 °C 1027.0 hPa Calm     71 % 0.0 mm 0.0 W/m2 CLR
00:55 -1.1 °C -5.9 °C 1027.0 hPa Calm     70 % 0.0 mm 0.0 W/m2 CLR
01:00 -1.1 °C -5.9 °C 1027.0 hPa Calm     70 % 0.0 mm 0.0 W/m2 CLR
01:05 -1.1 °C -5.9 °C 1027.0 hPa Calm     70 % 0.0 mm 0.0 W/m2 CLR
01:15 -1.1 °C -5.9 °C 1027.0 hPa Calm     70 % 0.0 mm 0.0 W/m2 CLR
01:25 -1.1 °C -6.1 °C 1027.0 hPa Calm     69 % 0.0 mm 0.0 W/m2 CLR
01:30 -1.1 °C -5.9 °C 1027.0 hPa Calm     70 % 0.0 mm 0.0 W/m2 CLR
01:35 -0.6 °C -5.6 °C 1027.0 hPa Calm     69 % 0.0 mm 0.0 W/m2 CLR
01:45 -1.1 °C -6.1 °C 1027.0 hPa Calm     69 % 0.0 mm 0.0 W/m2 CLR
01:50 -1.1 °C -5.7 °C 1027.0 hPa Calm     71 % 0.0 mm 0.0 W/m2 CLR
01:55 -1.1 °C -5.5 °C 1027.0 hPa Calm     72 % 0.0 mm 0.0 W/m2 CLR
02:00 -1.1 °C -5.5 °C 1027.0 hPa Calm     72 % 0.0 mm 0.0 W/m2 CLR
02:05 -1.7 °C -6.1 °C 1027.0 hPa Calm     72 % 0.0 mm 0.0 W/m2 CLR
02:10 -1.7 °C -6.1 °C 1027.0 hPa Calm     72 % 0.0 mm 0.0 W/m2 CLR
02:15 -1.7 °C -6.2 °C 1027.0 hPa Calm     71 % 0.0 mm 0.0 W/m2 CLR
02:20 -1.7 °C -6.2 °C 1027.0 hPa Calm     71 % 0.0 mm 0.0 W/m2 CLR
02:25 -1.7 °C -6.4 °C 1027.0 hPa Calm     70 % 0.0 mm 0.0 W/m2 CLR
02:30 -1.7 °C -6.2 °C 1027.0 hPa Calm     71 % 0.0 mm 0.0 W/m2 CLR
02:35 -1.7 °C -6.4 °C 1027.0 hPa Calm     70 % 0.0 mm 0.0 W/m2 CLR
02:45 -1.7 °C -6.2 °C 1027.0 hPa Calm     71 % 0.0 mm 0.0 W/m2 CLR
02:50 -1.1 °C -5.7 °C 1027.0 hPa Calm     71 % 0.0 mm 0.0 W/m2 CLR
03:00 -1.7 °C -6.4 °C 1027.0 hPa Calm     70 % 0.0 mm 0.0 W/m2 CLR
03:05 -1.7 °C -6.4 °C 1027.0 hPa Calm     70 % 0.0 mm 0.0 W/m2 CLR
03:10 -1.7 °C -6.2 °C 1027.0 hPa Calm     71 % 0.0 mm 0.0 W/m2 CLR
03:15 -1.7 °C -6.2 °C 1027.0 hPa Calm     71 % 0.0 mm 0.0 W/m2 CLR
03:25 -1.7 °C -6.4 °C 1027.0 hPa Calm     70 % 0.0 mm 0.0 W/m2 CLR
03:30 -1.7 °C -6.4 °C 1027.0 hPa Calm     70 % 0.0 mm 0.0 W/m2 CLR
03:35 -1.7 °C -6.4 °C 1027.0 hPa Calm     70 % 0.0 mm 0.0 W/m2 CLR
03:40 -1.7 °C -6.2 °C 1027.0 hPa Calm     71 % 0.0 mm 0.0 W/m2 CLR
03:45 -1.7 °C -6.4 °C 1027.0 hPa Calm     70 % 0.0 mm 0.0 W/m2 CLR
03:50 -1.7 °C -6.4 °C 1027.0 hPa Calm     70 % 0.0 mm 0.0 W/m2 CLR
04:05 -1.1 °C -5.9 °C 1027.0 hPa Calm     70 % 0.0 mm 0.0 W/m2 CLR
04:16 -1.7 °C -6.2 °C 1027.0 hPa Calm     71 % 0.0 mm 0.0 W/m2 CLR
04:21 -1.7 °C -6.2 °C 1027.0 hPa Calm     71 % 0.0 mm 0.0 W/m2 CLR
04:26 -1.7 °C -6.1 °C 1027.0 hPa Calm     72 % 0.0 mm 0.0 W/m2 CLR
04:36 -1.7 °C -6.1 °C 1027.0 hPa Calm     72 % 0.0 mm 0.0 W/m2 CLR
04:46 -2.2 °C -6.2 °C 1027.0 hPa Calm     74 % 0.0 mm 0.0 W/m2 CLR
04:51 -2.2 °C -6.2 °C 1026.6 hPa Calm     74 % 0.0 mm 0.0 W/m2 CLR
04:56 -2.2 °C -6.4 °C 1026.6 hPa Calm     73 % 0.0 mm 0.0 W/m2 CLR
05:16 -2.2 °C -6.1 °C 1026.6 hPa Calm     75 % 0.0 mm 0.0 W/m2 CLR
05:21 -2.2 °C -6.1 °C 1027.0 hPa Calm     75 % 0.0 mm 0.0 W/m2 CLR
05:26 -2.2 °C -6.2 °C 1027.0 hPa Calm     74 % 0.0 mm 0.0 W/m2 CLR
05:31 -2.2 °C -6.2 °C 1027.0 hPa Calm     74 % 0.0 mm 0.0 W/m2 CLR
05:37 -2.2 °C -6.2 °C 1027.0 hPa Calm     74 % 0.0 mm 0.0 W/m2 CLR
05:42 -2.2 °C -6.2 °C 1027.0 hPa Calm     74 % 0.0 mm 0.0 W/m2 CLR
05:52 -2.2 °C -6.2 °C 1027.0 hPa Calm     74 % 0.0 mm 0.0 W/m2 CLR
05:57 -2.2 °C -6.1 °C 1027.0 hPa Calm     75 % 0.0 mm 0.0 W/m2 CLR
06:02 -2.2 °C -6.1 °C 1027.0 hPa Calm     75 % 0.0 mm 0.0 W/m2 CLR
06:12 -2.2 °C -5.9 °C 1027.0 hPa Calm     76 % 0.0 mm 0.0 W/m2 CLR
06:17 -2.2 °C -5.9 °C 1027.0 hPa Calm     76 % 0.0 mm 0.0 W/m2 CLR
06:18 -2.2 °C -5.9 °C 1027.0 hPa Calm     76 % 0.0 mm 0.0 W/m2 CLR
06:23 -2.2 °C -5.9 °C 1027.0 hPa Calm     76 % 0.0 mm 0.0 W/m2 CLR
06:43 -2.2 °C -5.6 °C 1027.0 hPa Calm     78 % 0.0 mm 0.0 W/m2 CLR
06:48 -2.2 °C -5.7 °C 1027.3 hPa Calm     77 % 0.0 mm 0.0 W/m2 CLR
06:58 -2.2 °C -5.6 °C 1027.3 hPa Calm     78 % 0.0 mm 0.0 W/m2 CLR
07:03 -2.8 °C -6.3 °C 1027.0 hPa Calm     77 % 0.0 mm 0.0 W/m2 CLR
07:08 -2.8 °C -6.3 °C 1027.0 hPa Calm     77 % 0.0 mm 0.0 W/m2 CLR
07:13 -2.2 °C -5.6 °C 1027.0 hPa Calm     78 % 0.0 mm 0.0 W/m2 CLR
07:18 -2.2 °C -5.6 °C 1027.0 hPa Calm     78 % 0.0 mm 0.0 W/m2 CLR
07:33 -2.8 °C -5.9 °C 1027.3 hPa Calm     79 % 0.0 mm 0.0 W/m2 CLR
07:38 -2.8 °C -5.9 °C 1027.3 hPa Calm     79 % 0.0 mm 0.0 W/m2 CLR
07:43 -2.8 °C -6.1 °C 1027.3 hPa Calm     78 % 0.0 mm 0.0 W/m2 OVC
07:48 -2.8 °C -5.9 °C 1027.3 hPa Calm     79 % 0.0 mm 0.0 W/m2 OVC
07:53 -2.8 °C -5.9 °C 1027.3 hPa Calm     79 % 0.0 mm 5.0 W/m2 OVC
07:58 -2.8 °C -5.9 °C 1027.3 hPa Calm     79 % 0.0 mm 7.0 W/m2 BKN
08:03 -2.8 °C -6.3 °C 1027.3 hPa Calm     77 % 0.0 mm 9.0 W/m2 BKN
08:08 -2.8 °C -5.7 °C 1027.3 hPa Calm     80 % 0.0 mm 11.0 W/m2 BKN
08:13 -2.8 °C -6.1 °C 1027.3 hPa Calm     78 % 0.0 mm 12.0 W/m2 BKN
08:18 -2.8 °C -6.3 °C 1027.3 hPa Calm     77 % 0.0 mm 14.0 W/m2 BKN
08:23 -2.8 °C -6.1 °C 1027.7 hPa Calm     78 % 0.0 mm 19.0 W/m2 BKN
08:29 -2.2 °C -5.6 °C 1027.7 hPa Calm     78 % 0.0 mm 33.0 W/m2 BKN
08:34 -2.2 °C -5.6 °C 1027.7 hPa Calm     78 % 0.0 mm 39.0 W/m2 BKN
08:54 -2.2 °C -6.2 °C 1027.7 hPa Calm     74 % 0.0 mm 88.0 W/m2 FEW
09:04 -2.2 °C -6.8 °C 1028.0 hPa Calm     71 % 0.0 mm 121.0 W/m2 CLR
09:09 -2.2 °C -6.9 °C 1028.0 hPa Calm     70 % 0.0 mm 137.0 W/m2 CLR
09:14 -1.7 °C -6.8 °C 1028.0 hPa Calm     68 % 0.0 mm 120.0 W/m2 CLR
09:19 -1.1 °C -6.4 °C 1028.0 hPa Calm     67 % 0.0 mm 165.0 W/m2 CLR
09:34 -0.6 °C -6.3 °C 1028.0 hPa Calm     65 % 0.0 mm 186.0 W/m2 CLR
09:38 -0.6 °C -6.3 °C 1028.0 hPa Calm     65 % 0.0 mm 227.0 W/m2 CLR
09:43 0.0 °C -6.0 °C 1028.0 hPa Calm     64 % 0.0 mm 236.0 W/m2 CLR
09:48 0.6 °C -5.7 °C 1028.0 hPa Calm     63 % 0.0 mm 253.0 W/m2 CLR
09:53 1.1 °C -5.6 °C 1028.3 hPa Calm     61 % 0.0 mm 265.0 W/m2 CLR
09:58 1.7 °C -5.3 °C 1028.3 hPa Calm     60 % 0.0 mm 279.0 W/m2 CLR
10:03 2.2 °C -5.2 °C 1028.3 hPa Calm     58 % 0.0 mm 290.0 W/m2 CLR
10:18 3.3 °C -5.1 °C 1028.3 hPa Calm     54 % 0.0 mm 323.0 W/m2 CLR
10:23 4.4 °C -4.3 °C 1028.3 hPa Calm     53 % 0.0 mm 322.0 W/m2 CLR
10:43 6.1 °C -3.6 °C 1028.7 hPa Calm     50 % 0.0 mm 371.0 W/m2 CLR
10:48 6.7 °C -3.3 °C 1028.7 hPa Calm     49 % 0.0 mm 378.0 W/m2 CLR
10:53 6.7 °C -3.6 °C 1028.7 hPa Calm     48 % 0.0 mm 387.0 W/m2 CLR
10:58 7.2 °C -3.7 °C 1028.7 hPa Calm     46 % 0.0 mm 394.0 W/m2 CLR
11:08 8.9 °C -2.1 °C 1028.7 hPa Calm     46 % 0.0 mm 410.0 W/m2 CLR
11:13 8.9 °C -2.4 °C 1028.7 hPa Calm     45 % 0.0 mm 418.0 W/m2 CLR
11:23 10.0 °C -3.0 °C 1028.7 hPa Calm     40 % 0.0 mm 432.0 W/m2 CLR
11:28 10.6 °C -2.5 °C 1028.7 hPa Calm     40 % 0.0 mm 439.0 W/m2 CLR
11:33 11.1 °C -2.3 °C 1028.3 hPa Calm     39 % 0.0 mm 446.0 W/m2 CLR
11:38 11.7 °C -2.2 °C 1028.3 hPa Calm     38 % 0.0 mm 448.0 W/m2 CLR
12:03 12.8 °C -1.6 °C 1028.0 hPa Calm     37 % 0.0 mm 473.0 W/m2 CLR
12:08 13.3 °C -1.4 °C 1027.7 hPa Calm     36 % 0.0 mm 468.0 W/m2 CLR
12:13 13.3 °C -1.4 °C 1027.7 hPa Calm     36 % 0.0 mm 469.0 W/m2 CLR
12:23 13.9 °C -1.3 °C 1027.7 hPa Calm     35 % 0.0 mm 482.0 W/m2 CLR
12:28 14.4 °C -1.2 °C 1027.3 hPa Calm     34 % 0.0 mm 487.0 W/m2 CLR
12:33 14.4 °C -1.2 °C 1027.3 hPa East 5.6 km/h 5.6 km/h 34 % 0.0 mm 485.0 W/m2 CLR
12:53 14.4 °C -0.8 °C 1027.0 hPa East 7.4 km/h 7.4 km/h 35 % 0.0 mm 480.0 W/m2 CLR
13:08 14.4 °C -0.8 °C 1027.0 hPa East 4.8 km/h 4.8 km/h 35 % 0.0 mm 487.0 W/m2 CLR
13:13 15.0 °C -0.3 °C 1027.0 hPa East 1.9 km/h 1.9 km/h 35 % 0.0 mm 489.0 W/m2 CLR
13:18 15.0 °C -0.3 °C 1027.0 hPa East 3.7 km/h 3.7 km/h 35 % 0.0 mm 487.0 W/m2 CLR
13:23 15.0 °C -0.8 °C 1026.6 hPa ESE 5.6 km/h 5.6 km/h 34 % 0.0 mm 489.0 W/m2 CLR
13:33 15.0 °C -0.3 °C 1026.6 hPa East 3.7 km/h 3.7 km/h 35 % 0.0 mm 476.0 W/m2 CLR
13:38 15.0 °C -0.8 °C 1026.6 hPa East 5.6 km/h 5.6 km/h 34 % 0.0 mm 468.0 W/m2 CLR
13:53 15.6 °C -0.7 °C 1026.3 hPa ESE 5.6 km/h 5.6 km/h 33 % 0.0 mm 446.0 W/m2 CLR
13:58 15.6 °C -0.7 °C 1026.3 hPa East 1.9 km/h 1.9 km/h 33 % 0.0 mm 446.0 W/m2 CLR
14:08 15.6 °C -0.7 °C 1026.3 hPa ESE 3.7 km/h 3.7 km/h 33 % 0.0 mm 439.0 W/m2 CLR
14:13 15.6 °C -0.3 °C 1026.3 hPa Calm     34 % 0.0 mm 436.0 W/m2 CLR
14:18 15.6 °C -0.7 °C 1026.3 hPa East 5.6 km/h 5.6 km/h 33 % 0.0 mm 392.0 W/m2 CLR
14:23 15.6 °C -0.3 °C 1026.0 hPa Calm     34 % 0.0 mm 387.0 W/m2 CLR
14:38 15.6 °C -0.3 °C 1026.0 hPa East 5.6 km/h 5.6 km/h 34 % 0.0 mm 392.0 W/m2 CLR
14:53 16.1 °C 0.2 °C 1025.6 hPa Calm     34 % 0.0 mm 362.0 W/m2 CLR
14:58 16.1 °C -0.2 °C 1025.6 hPa East 5.6 km/h 5.6 km/h 33 % 0.0 mm 353.0 W/m2 CLR
15:03 16.1 °C -0.2 °C 1025.6 hPa East 3.7 km/h 3.7 km/h 33 % 0.0 mm 329.0 W/m2 CLR
15:08 16.1 °C -0.2 °C 1025.6 hPa Calm     33 % 0.0 mm 332.0 W/m2 CLR
15:18 16.1 °C -0.2 °C 1025.3 hPa East 5.6 km/h 5.6 km/h 33 % 0.0 mm 309.0 W/m2 CLR
15:33 16.1 °C -0.2 °C 1025.3 hPa NE 1.9 km/h 1.9 km/h 33 % 0.0 mm 272.0 W/m2 CLR
15:48 15.6 °C -0.7 °C 1025.3 hPa ENE 3.7 km/h 3.7 km/h 33 % 0.0 mm 232.0 W/m2 CLR
15:59 15.6 °C -0.7 °C 1025.6 hPa East 5.6 km/h 5.6 km/h 33 % 0.0 mm 206.0 W/m2 CLR
16:04 15.0 °C -1.2 °C 1025.6 hPa Calm     33 % 0.0 mm 190.0 W/m2 CLR
16:09 15.0 °C -1.2 °C 1025.6 hPa Calm     33 % 0.0 mm 174.0 W/m2 CLR
16:19 14.4 °C -1.7 °C 1025.6 hPa Calm     33 % 0.0 mm 148.0 W/m2 CLR
16:24 14.4 °C -1.7 °C 1025.3 hPa Calm     33 % 0.0 mm 135.0 W/m2 CLR
16:39 13.3 °C -2.6 °C 1025.6 hPa Calm     33 % 0.0 mm 91.0 W/m2 CLR
16:44 12.8 °C -3.1 °C 1025.3 hPa Calm     33 % 0.0 mm 79.0 W/m2 FEW
16:49 12.2 °C -3.2 °C 1025.6 hPa Calm     34 % 0.0 mm 58.0 W/m2 SCT
16:54 11.7 °C -3.7 °C 1025.6 hPa Calm     34 % 0.0 mm 54.0 W/m2 SCT
16:59 11.1 °C -4.2 °C 1025.6 hPa Calm     34 % 0.0 mm 42.0 W/m2 BKN
17:04 10.6 °C -4.7 °C 1025.6 hPa Calm     34 % 0.0 mm 32.0 W/m2 BKN
17:09 10.0 °C -5.2 °C 1025.6 hPa Calm     34 % 0.0 mm 23.0 W/m2 BKN
17:19 9.4 °C -5.3 °C 1025.6 hPa Calm     35 % 0.0 mm 14.0 W/m2 BKN
17:24 8.9 °C -5.8 °C 1025.6 hPa Calm     35 % 0.0 mm 12.0 W/m2 BKN
17:34 8.3 °C -5.9 °C 1025.6 hPa Calm     36 % 0.0 mm 7.0 W/m2 BKN
17:39 7.8 °C -6.1 °C 1025.6 hPa Calm     37 % 0.0 mm 5.0 W/m2 OVC
17:49 7.2 °C -5.8 °C 1025.6 hPa Calm     39 % 0.0 mm 0.0 W/m2 CLR
17:59 7.2 °C -5.5 °C 1026.0 hPa Calm     40 % 0.0 mm 0.0 W/m2 CLR
18:04 7.8 °C -5.0 °C 1026.0 hPa Calm     40 % 0.0 mm 0.0 W/m2 CLR
18:09 8.3 °C -4.5 °C 1026.0 hPa Calm     40 % 0.0 mm 0.0 W/m2 CLR
18:14 7.8 °C -4.3 °C 1026.0 hPa Calm     42 % 0.0 mm 0.0 W/m2 CLR
18:19 7.8 °C -4.3 °C 1026.0 hPa Calm     42 % 0.0 mm 0.0 W/m2 CLR
18:24 7.8 °C -4.1 °C 1026.0 hPa Calm     43 % 0.0 mm 0.0 W/m2 CLR
18:34 6.7 °C -4.2 °C 1026.0 hPa Calm     46 % 0.0 mm 0.0 W/m2 CLR
18:44 6.1 °C -4.1 °C 1026.0 hPa Calm     48 % 0.0 mm 0.0 W/m2 CLR
18:49 5.6 °C -4.6 °C 1026.0 hPa Calm     48 % 0.0 mm 0.0 W/m2 CLR
19:04 5.0 °C -4.3 °C 1026.3 hPa Calm     51 % 0.0 mm 0.0 W/m2 CLR
19:09 4.4 °C -4.8 °C 1026.3 hPa Calm     51 % 0.0 mm 0.0 W/m2 CLR
19:14 3.9 °C -4.8 °C 1026.3 hPa Calm     53 % 0.0 mm 0.0 W/m2 CLR
19:19 3.3 °C -5.1 °C 1026.3 hPa Calm     54 % 0.0 mm 0.0 W/m2 CLR
19:24 3.3 °C -5.3 °C 1026.3 hPa Calm     53 % 0.0 mm 0.0 W/m2 CLR
19:29 2.8 °C -5.9 °C 1026.3 hPa Calm     53 % 0.0 mm 0.0 W/m2 CLR
19:44 2.2 °C -5.9 °C 1026.6 hPa Calm     55 % 0.0 mm 0.0 W/m2 CLR
19:59 2.8 °C -5.2 °C 1026.6 hPa Calm     56 % 0.0 mm 0.0 W/m2 CLR
20:04 2.8 °C -5.2 °C 1026.6 hPa Calm     56 % 0.0 mm 0.0 W/m2 CLR
20:09 2.2 °C -5.7 °C 1026.6 hPa Calm     56 % 0.0 mm 0.0 W/m2 CLR
20:14 2.2 °C -5.4 °C 1026.6 hPa Calm     57 % 0.0 mm 0.0 W/m2 CLR
20:19 1.7 °C -5.9 °C 1026.6 hPa Calm     57 % 0.0 mm 0.0 W/m2 CLR
20:29 1.1 °C -6.2 °C 1026.6 hPa Calm     58 % 0.0 mm 0.0 W/m2 CLR
20:34 1.1 °C -6.2 °C 1026.6 hPa Calm     58 % 0.0 mm 0.0 W/m2 CLR
20:39 0.6 °C -6.6 °C 1027.0 hPa Calm     59 % 0.0 mm 0.0 W/m2 CLR
20:44 0.6 °C -6.6 °C 1027.0 hPa Calm     59 % 0.0 mm 0.0 W/m2 CLR
20:49 0.0 °C -7.1 °C 1027.0 hPa Calm     59 % 0.0 mm 0.0 W/m2 CLR
21:24 0.0 °C -6.6 °C 1027.3 hPa Calm     61 % 0.0 mm 0.0 W/m2 CLR
21:29 0.6 °C -6.1 °C 1027.3 hPa Calm     61 % 0.0 mm 0.0 W/m2 CLR
21:34 0.6 °C -6.1 °C 1027.0 hPa Calm     61 % 0.0 mm 0.0 W/m2 CLR
21:39 0.6 °C -6.1 °C 1027.0 hPa Calm     61 % 0.0 mm 0.0 W/m2 CLR
21:44 0.0 °C -6.4 °C 1027.0 hPa Calm     62 % 0.0 mm 0.0 W/m2 CLR
21:59 1.1 °C -5.2 °C 1027.0 hPa Calm     63 % 0.0 mm 0.0 W/m2 CLR
22:04 1.1 °C -5.2 °C 1027.0 hPa Calm     63 % 0.0 mm 0.0 W/m2 CLR
22:09 0.6 °C -5.7 °C 1027.0 hPa Calm     63 % 0.0 mm 0.0 W/m2 CLR
22:15 0.6 °C -5.5 °C 1027.0 hPa Calm     64 % 0.0 mm 0.0 W/m2 CLR
22:30 -0.6 °C -6.3 °C 1027.0 hPa Calm     65 % 0.0 mm 0.0 W/m2 CLR
22:35 -0.6 °C -6.1 °C 1027.0 hPa Calm     66 % 0.0 mm 0.0 W/m2 CLR
22:40 0.0 °C -5.8 °C 1027.0 hPa Calm     65 % 0.0 mm 0.0 W/m2 CLR
22:45 0.0 °C -5.8 °C 1027.0 hPa Calm     65 % 0.0 mm 0.0 W/m2 CLR
23:00 0.0 °C -5.6 °C 1027.0 hPa Calm     66 % 0.0 mm 0.0 W/m2 CLR
23:10 0.0 °C -5.4 °C 1027.0 hPa Calm     67 % 0.0 mm 0.0 W/m2 CLR
23:15 0.0 °C -5.4 °C 1027.0 hPa Calm     67 % 0.0 mm 0.0 W/m2 CLR
23:30 0.6 °C -4.9 °C 1027.0 hPa Calm     67 % 0.0 mm 0.0 W/m2 CLR
23:45 0.0 °C -5.2 °C 1027.0 hPa Calm     68 % 0.0 mm 0.0 W/m2 CLR
23:50 0.6 °C -4.7 °C 1027.0 hPa Calm     68 % 0.0 mm 0.0 W/m2 CLR
23:55 0.6 °C -4.5 °C 1027.0 hPa Calm     69 % 0.0 mm 0.0 W/m2 CLR
Lo Temps de Massalio
Compliments of Weather Underground - 1 mb